sensor_id;sensor_type;location;lat;lon;timestamp;pressure;altitude;pressure_sealevel;temperature;humidity
56600;BME280;51832;48.152;11.530;2023-11-19T00:02:46;95547.69;;;7.65;100.00
56600;BME280;51832;48.152;11.530;2023-11-19T00:07:47;95541.41;;;7.99;100.00
56600;BME280;51832;48.152;11.530;2023-11-19T00:12:49;95525.50;;;7.74;100.00
56600;BME280;51832;48.152;11.530;2023-11-19T00:17:49;95505.75;;;7.78;100.00
56600;BME280;51832;48.152;11.530;2023-11-19T00:22:50;95509.56;;;7.82;100.00
56600;BME280;51832;48.152;11.530;2023-11-19T00:27:53;95492.66;;;7.84;100.00
56600;BME280;51832;48.152;11.530;2023-11-19T00:32:54;95496.03;;;8.18;100.00
56600;BME280;51832;48.152;11.530;2023-11-19T00:37:54;95482.31;;;8.09;100.00
56600;BME280;51832;48.152;11.530;2023-11-19T00:42:55;95481.09;;;8.32;100.00
56600;BME280;51832;48.152;11.530;2023-11-19T00:47:55;95482.88;;;8.25;100.00
56600;BME280;51832;48.152;11.530;2023-11-19T00:52:56;95474.00;;;8.39;100.00
56600;BME280;51832;48.152;11.530;2023-11-19T00:57:56;95467.50;;;8.54;100.00
56600;BME280;51832;48.152;11.530;2023-11-19T01:02:56;95471.13;;;8.53;100.00
56600;BME280;51832;48.152;11.530;2023-11-19T01:07:57;95470.94;;;8.55;100.00
56600;BME280;51832;48.152;11.530;2023-11-19T01:12:57;95461.84;;;8.58;100.00
56600;BME280;51832;48.152;11.530;2023-11-19T01:17:58;95449.88;;;8.68;100.00
56600;BME280;51832;48.152;11.530;2023-11-19T01:22:58;95446.97;;;8.38;100.00
56600;BME280;51832;48.152;11.530;2023-11-19T01:27:59;95437.91;;;8.41;100.00
56600;BME280;51832;48.152;11.530;2023-11-19T01:32:59;95432.41;;;8.49;100.00
56600;BME280;51832;48.152;11.530;2023-11-19T01:38:00;95430.59;;;8.49;100.00
56600;BME280;51832;48.152;11.530;2023-11-19T01:43:00;95423.66;;;8.62;100.00
56600;BME280;51832;48.152;11.530;2023-11-19T01:48:02;95419.50;;;8.47;100.00
56600;BME280;51832;48.152;11.530;2023-11-19T01:53:07;95415.28;;;8.46;100.00
56600;BME280;51832;48.152;11.530;2023-11-19T01:58:07;95411.34;;;8.69;100.00
56600;BME280;51832;48.152;11.530;2023-11-19T02:03:08;95407.66;;;8.76;100.00
56600;BME280;51832;48.152;11.530;2023-11-19T02:08:09;95389.09;;;9.03;100.00
56600;BME280;51832;48.152;11.530;2023-11-19T02:13:09;95393.00;;;8.94;100.00
56600;BME280;51832;48.152;11.530;2023-11-19T02:18:23;95366.94;;;8.99;100.00
56600;BME280;51832;48.152;11.530;2023-11-19T02:23:26;95357.41;;;9.04;100.00
56600;BME280;51832;48.152;11.530;2023-11-19T02:28:27;95353.44;;;9.20;100.00
56600;BME280;51832;48.152;11.530;2023-11-19T02:33:28;95342.69;;;9.28;100.00
56600;BME280;51832;48.152;11.530;2023-11-19T02:38:29;95342.91;;;9.45;100.00
56600;BME280;51832;48.152;11.530;2023-11-19T02:43:34;95345.19;;;9.41;100.00
56600;BME280;51832;48.152;11.530;2023-11-19T02:48:35;95343.38;;;9.78;100.00
56600;BME280;51832;48.152;11.530;2023-11-19T02:53:36;95318.94;;;9.78;100.00
56600;BME280;51832;48.152;11.530;2023-11-19T02:58:39;95304.59;;;10.10;100.00
56600;BME280;51832;48.152;11.530;2023-11-19T03:03:40;95304.31;;;10.00;100.00
56600;BME280;51832;48.152;11.530;2023-11-19T03:08:42;95298.47;;;10.46;100.00
56600;BME280;51832;48.152;11.530;2023-11-19T03:13:43;95292.16;;;10.17;100.00
56600;BME280;51832;48.152;11.530;2023-11-19T03:18:43;95292.66;;;10.26;100.00
56600;BME280;51832;48.152;11.530;2023-11-19T03:23:43;95295.97;;;10.51;100.00
56600;BME280;51832;48.152;11.530;2023-11-19T03:28:44;95285.13;;;10.71;100.00
56600;BME280;51832;48.152;11.530;2023-11-19T03:33:44;95286.19;;;10.93;100.00
56600;BME280;51832;48.152;11.530;2023-11-19T03:38:45;95283.34;;;10.95;100.00
56600;BME280;51832;48.152;11.530;2023-11-19T03:43:46;95291.66;;;10.68;100.00
56600;BME280;51832;48.152;11.530;2023-11-19T03:48:48;95304.50;;;10.88;100.00
56600;BME280;51832;48.152;11.530;2023-11-19T03:53:49;95290.34;;;11.13;100.00
56600;BME280;51832;48.152;11.530;2023-11-19T03:58:49;95289.63;;;10.94;100.00
56600;BME280;51832;48.152;11.530;2023-11-19T04:03:50;95284.41;;;11.06;100.00
56600;BME280;51832;48.152;11.530;2023-11-19T04:08:50;95295.16;;;11.04;100.00
56600;BME280;51832;48.152;11.530;2023-11-19T04:13:51;95295.81;;;11.11;100.00
56600;BME280;51832;48.152;11.530;2023-11-19T04:18:51;95299.94;;;11.07;100.00
56600;BME280;51832;48.152;11.530;2023-11-19T04:23:51;95297.66;;;11.22;100.00
56600;BME280;51832;48.152;11.530;2023-11-19T04:28:52;95301.22;;;11.28;100.00
56600;BME280;51832;48.152;11.530;2023-11-19T04:33:52;95295.72;;;11.18;100.00
56600;BME280;51832;48.152;11.530;2023-11-19T04:38:55;95297.44;;;11.24;100.00
56600;BME280;51832;48.152;11.530;2023-11-19T04:43:55;95294.91;;;11.40;100.00
56600;BME280;51832;48.152;11.530;2023-11-19T04:48:56;95294.00;;;11.35;100.00
56600;BME280;51832;48.152;11.530;2023-11-19T04:53:56;95309.34;;;11.15;100.00
56600;BME280;51832;48.152;11.530;2023-11-19T04:58:56;95297.09;;;11.44;100.00
56600;BME280;51832;48.152;11.530;2023-11-19T05:03:57;95318.06;;;11.27;100.00
56600;BME280;51832;48.152;11.530;2023-11-19T05:09:00;95317.47;;;11.36;100.00
56600;BME280;51832;48.152;11.530;2023-11-19T05:14:04;95333.97;;;11.44;100.00
56600;BME280;51832;48.152;11.530;2023-11-19T05:19:05;95305.41;;;11.64;100.00
56600;BME280;51832;48.152;11.530;2023-11-19T05:24:06;95333.19;;;11.31;100.00
56600;BME280;51832;48.152;11.530;2023-11-19T05:29:06;95344.94;;;11.64;100.00
56600;BME280;51832;48.152;11.530;2023-11-19T05:34:06;95334.31;;;11.59;100.00
56600;BME280;51832;48.152;11.530;2023-11-19T05:39:07;95344.53;;;11.44;100.00
56600;BME280;51832;48.152;11.530;2023-11-19T05:44:07;95343.59;;;11.85;100.00
56600;BME280;51832;48.152;11.530;2023-11-19T05:49:11;95365.00;;;11.65;100.00
56600;BME280;51832;48.152;11.530;2023-11-19T05:54:12;95344.03;;;11.93;100.00
56600;BME280;51832;48.152;11.530;2023-11-19T05:59:13;95328.94;;;11.89;100.00
56600;BME280;51832;48.152;11.530;2023-11-19T06:04:17;95331.13;;;12.20;100.00
56600;BME280;51832;48.152;11.530;2023-11-19T06:09:18;95327.06;;;11.89;100.00
56600;BME280;51832;48.152;11.530;2023-11-19T06:14:18;95335.56;;;11.80;100.00
56600;BME280;51832;48.152;11.530;2023-11-19T06:19:19;95348.63;;;11.63;100.00
56600;BME280;51832;48.152;11.530;2023-11-19T06:24:19;95335.81;;;11.78;100.00
56600;BME280;51832;48.152;11.530;2023-11-19T06:29:20;95340.13;;;11.96;100.00
56600;BME280;51832;48.152;11.530;2023-11-19T06:34:20;95341.06;;;11.90;100.00
56600;BME280;51832;48.152;11.530;2023-11-19T06:39:21;95352.53;;;11.84;100.00
56600;BME280;51832;48.152;11.530;2023-11-19T06:44:21;95334.41;;;11.99;100.00
56600;BME280;51832;48.152;11.530;2023-11-19T06:49:21;95339.69;;;11.87;100.00
56600;BME280;51832;48.152;11.530;2023-11-19T06:54:22;95342.75;;;12.07;100.00
56600;BME280;51832;48.152;11.530;2023-11-19T06:59:22;95344.22;;;12.03;100.00
56600;BME280;51832;48.152;11.530;2023-11-19T07:04:23;95364.66;;;11.96;100.00
56600;BME280;51832;48.152;11.530;2023-11-19T07:09:23;95357.88;;;12.12;100.00
56600;BME280;51832;48.152;11.530;2023-11-19T07:14:24;95352.47;;;12.47;100.00
56600;BME280;51832;48.152;11.530;2023-11-19T07:19:24;95367.41;;;12.13;100.00
56600;BME280;51832;48.152;11.530;2023-11-19T07:24:24;95374.81;;;12.28;100.00
56600;BME280;51832;48.152;11.530;2023-11-19T07:29:25;95355.28;;;12.40;100.00
56600;BME280;51832;48.152;11.530;2023-11-19T07:34:26;95381.31;;;12.37;100.00
56600;BME280;51832;48.152;11.530;2023-11-19T07:39:28;95385.19;;;12.46;100.00
56600;BME280;51832;48.152;11.530;2023-11-19T07:44:29;95394.81;;;12.52;100.00
56600;BME280;51832;48.152;11.530;2023-11-19T07:49:29;95396.50;;;12.87;100.00
56600;BME280;51832;48.152;11.530;2023-11-19T07:54:31;95394.38;;;12.72;100.00
56600;BME280;51832;48.152;11.530;2023-11-19T07:59:31;95404.19;;;12.88;100.00
56600;BME280;51832;48.152;11.530;2023-11-19T08:04:31;95398.03;;;12.82;100.00
56600;BME280;51832;48.152;11.530;2023-11-19T08:09:32;95407.84;;;12.70;100.00
56600;BME280;51832;48.152;11.530;2023-11-19T08:14:33;95401.19;;;12.68;100.00
56600;BME280;51832;48.152;11.530;2023-11-19T08:19:33;95399.56;;;12.95;100.00
56600;BME280;51832;48.152;11.530;2023-11-19T08:24:34;95400.69;;;12.99;100.00
56600;BME280;51832;48.152;11.530;2023-11-19T08:29:34;95408.31;;;13.12;100.00
56600;BME280;51832;48.152;11.530;2023-11-19T08:34:34;95408.91;;;13.14;100.00
56600;BME280;51832;48.152;11.530;2023-11-19T08:39:35;95400.53;;;13.06;100.00
56600;BME280;51832;48.152;11.530;2023-11-19T08:44:37;95404.50;;;13.53;100.00
56600;BME280;51832;48.152;11.530;2023-11-19T08:49:41;95403.72;;;13.36;100.00
56600;BME280;51832;48.152;11.530;2023-11-19T08:54:44;95414.28;;;13.20;100.00
56600;BME280;51832;48.152;11.530;2023-11-19T08:59:45;95410.28;;;13.17;100.00
56600;BME280;51832;48.152;11.530;2023-11-19T09:04:46;95414.38;;;13.13;100.00
56600;BME280;51832;48.152;11.530;2023-11-19T09:09:46;95421.22;;;13.09;100.00
56600;BME280;51832;48.152;11.530;2023-11-19T09:14:46;95392.38;;;13.36;100.00
56600;BME280;51832;48.152;11.530;2023-11-19T09:19:47;95415.59;;;13.50;100.00
56600;BME280;51832;48.152;11.530;2023-11-19T09:24:47;95420.88;;;13.50;100.00
56600;BME280;51832;48.152;11.530;2023-11-19T09:29:48;95417.00;;;13.41;100.00
56600;BME280;51832;48.152;11.530;2023-11-19T09:34:50;95420.47;;;13.59;100.00
56600;BME280;51832;48.152;11.530;2023-11-19T09:39:50;95454.50;;;13.38;100.00
56600;BME280;51832;48.152;11.530;2023-11-19T09:44:51;95427.78;;;13.51;100.00
56600;BME280;51832;48.152;11.530;2023-11-19T09:49:51;95429.75;;;13.61;100.00
56600;BME280;51832;48.152;11.530;2023-11-19T09:54:53;95417.59;;;13.60;100.00
56600;BME280;51832;48.152;11.530;2023-11-19T09:59:54;95405.06;;;13.89;100.00
56600;BME280;51832;48.152;11.530;2023-11-19T10:04:55;95402.66;;;13.71;100.00
56600;BME280;51832;48.152;11.530;2023-11-19T10:09:56;95395.41;;;14.00;100.00
56600;BME280;51832;48.152;11.530;2023-11-19T10:14:57;95384.22;;;14.36;100.00
56600;BME280;51832;48.152;11.530;2023-11-19T10:20:01;95409.13;;;13.97;100.00
56600;BME280;51832;48.152;11.530;2023-11-19T10:25:01;95377.44;;;14.40;100.00
56600;BME280;51832;48.152;11.530;2023-11-19T10:30:02;95393.97;;;14.31;100.00
56600;BME280;51832;48.152;11.530;2023-11-19T10:35:05;95385.00;;;14.53;100.00
56600;BME280;51832;48.152;11.530;2023-11-19T10:40:07;95390.22;;;14.70;100.00
56600;BME280;51832;48.152;11.530;2023-11-19T10:45:23;95367.19;;;14.98;100.00
56600;BME280;51832;48.152;11.530;2023-11-19T10:50:29;95354.13;;;14.91;100.00
56600;BME280;51832;48.152;11.530;2023-11-19T10:55:30;95344.41;;;15.28;100.00
56600;BME280;51832;48.152;11.530;2023-11-19T11:00:38;95350.19;;;14.93;100.00
56600;BME280;51832;48.152;11.530;2023-11-19T11:05:40;95364.69;;;14.59;100.00
56600;BME280;51832;48.152;11.530;2023-11-19T11:10:59;95318.22;;;15.05;100.00
56600;BME280;51832;48.152;11.530;2023-11-19T11:16:00;95316.53;;;14.89;100.00
56600;BME280;51832;48.152;11.530;2023-11-19T11:21:14;95335.28;;;15.14;100.00
56600;BME280;51832;48.152;11.530;2023-11-19T11:47:17;95310.88;;;15.49;98.38
56600;BME280;51832;48.152;11.530;2023-11-19T11:52:17;95304.41;;;15.67;97.53
56600;BME280;51832;48.152;11.530;2023-11-19T11:57:18;95346.22;;;16.02;96.21
56600;BME280;51832;48.152;11.530;2023-11-19T12:02:20;95356.91;;;15.65;96.44
56600;BME280;51832;48.152;11.530;2023-11-19T12:07:23;95302.28;;;15.74;96.17
56600;BME280;51832;48.152;11.530;2023-11-19T12:12:27;95297.41;;;15.98;94.30
56600;BME280;51832;48.152;11.530;2023-11-19T12:17:47;95322.41;;;16.17;93.39
56600;BME280;51832;48.152;11.530;2023-11-19T12:22:52;95319.81;;;15.75;92.71
56600;BME280;51832;48.152;11.530;2023-11-19T12:27:53;95310.13;;;16.01;92.27
56600;BME280;51832;48.152;11.530;2023-11-19T12:32:54;95284.56;;;16.57;89.52
56600;BME280;51832;48.152;11.530;2023-11-19T12:37:55;95296.94;;;16.21;90.55
56600;BME280;51832;48.152;11.530;2023-11-19T12:42:55;95273.66;;;16.54;88.97
56600;BME280;51832;48.152;11.530;2023-11-19T12:48:05;95265.22;;;16.72;87.21
56600;BME280;51832;48.152;11.530;2023-11-19T12:53:06;95268.97;;;17.17;85.00
56600;BME280;51832;48.152;11.530;2023-11-19T12:58:06;95265.75;;;17.10;84.75
56600;BME280;51832;48.152;11.530;2023-11-19T13:03:07;95280.88;;;17.50;83.39
56600;BME280;51832;48.152;11.530;2023-11-19T13:08:09;95260.44;;;17.35;83.21
56600;BME280;51832;48.152;11.530;2023-11-19T13:13:09;95267.22;;;16.29;88.21
56600;BME280;51832;48.152;11.530;2023-11-19T13:18:10;95260.09;;;16.45;88.28
56600;BME280;51832;48.152;11.530;2023-11-19T13:23:11;95272.91;;;16.68;87.13
56600;BME280;51832;48.152;11.530;2023-11-19T13:28:11;95258.69;;;16.17;89.40
56600;BME280;51832;48.152;11.530;2023-11-19T13:33:11;95246.47;;;16.16;89.49
56600;BME280;51832;48.152;11.530;2023-11-19T13:38:13;95237.59;;;16.78;86.65
56600;BME280;51832;48.152;11.530;2023-11-19T13:43:13;95248.16;;;16.38;88.33
56600;BME280;51832;48.152;11.530;2023-11-19T13:48:14;95245.94;;;15.52;92.42
56600;BME280;51832;48.152;11.530;2023-11-19T13:53:14;95257.53;;;15.88;91.37
56600;BME280;51832;48.152;11.530;2023-11-19T13:58:15;95243.38;;;15.72;92.54
56600;BME280;51832;48.152;11.530;2023-11-19T14:03:16;95228.88;;;15.90;92.65
56600;BME280;51832;48.152;11.530;2023-11-19T14:08:16;95226.47;;;15.83;92.70
56600;BME280;51832;48.152;11.530;2023-11-19T14:13:16;95234.22;;;15.48;94.87
56600;BME280;51832;48.152;11.530;2023-11-19T14:18:18;95225.97;;;15.39;94.92
56600;BME280;51832;48.152;11.530;2023-11-19T14:23:18;95224.84;;;15.25;95.79
56600;BME280;51832;48.152;11.530;2023-11-19T14:28:19;95231.28;;;15.39;95.55
56600;BME280;51832;48.152;11.530;2023-11-19T14:33:19;95226.97;;;15.33;95.20
56600;BME280;51832;48.152;11.530;2023-11-19T14:38:20;95232.06;;;15.40;94.65
56600;BME280;51832;48.152;11.530;2023-11-19T14:43:20;95220.28;;;16.60;89.40
56600;BME280;51832;48.152;11.530;2023-11-19T14:48:20;95237.13;;;17.96;80.92
56600;BME280;51832;48.152;11.530;2023-11-19T14:53:21;95209.81;;;18.30;78.05
56600;BME280;51832;48.152;11.530;2023-11-19T14:58:22;95212.13;;;18.41;77.00
56600;BME280;51832;48.152;11.530;2023-11-19T15:03:23;95227.59;;;18.39;76.92
56600;BME280;51832;48.152;11.530;2023-11-19T15:08:23;95219.22;;;18.17;77.33
56600;BME280;51832;48.152;11.530;2023-11-19T15:13:24;95222.19;;;18.50;75.53
56600;BME280;51832;48.152;11.530;2023-11-19T15:18:24;95217.66;;;17.06;81.78
56600;BME280;51832;48.152;11.530;2023-11-19T15:23:25;95204.00;;;16.16;86.82
56600;BME280;51832;48.152;11.530;2023-11-19T15:28:25;95208.88;;;15.62;90.48
56600;BME280;51832;48.152;11.530;2023-11-19T15:33:25;95237.28;;;15.24;91.94
56600;BME280;51832;48.152;11.530;2023-11-19T15:38:26;95235.13;;;15.21;92.61
56600;BME280;51832;48.152;11.530;2023-11-19T15:43:26;95226.53;;;14.99;94.04
56600;BME280;51832;48.152;11.530;2023-11-19T15:48:27;95241.38;;;15.05;94.13
56600;BME280;51832;48.152;11.530;2023-11-19T15:53:27;95234.13;;;14.90;94.46
56600;BME280;51832;48.152;11.530;2023-11-19T15:58:27;95245.13;;;15.09;93.65
56600;BME280;51832;48.152;11.530;2023-11-19T16:03:28;95241.63;;;14.99;94.36
56600;BME280;51832;48.152;11.530;2023-11-19T16:08:30;95262.09;;;14.76;95.81
56600;BME280;51832;48.152;11.530;2023-11-19T16:13:30;95260.09;;;14.93;95.14
56600;BME280;51832;48.152;11.530;2023-11-19T16:18:31;95251.41;;;14.66;96.51
56600;BME280;51832;48.152;11.530;2023-11-19T16:23:32;95245.50;;;14.86;96.26
56600;BME280;51832;48.152;11.530;2023-11-19T16:28:32;95247.66;;;14.89;95.68
56600;BME280;51832;48.152;11.530;2023-11-19T16:33:35;95243.53;;;14.44;98.07
56600;BME280;51832;48.152;11.530;2023-11-19T16:38:35;95233.25;;;14.26;99.32
56600;BME280;51832;48.152;11.530;2023-11-19T16:43:36;95232.41;;;13.94;100.00
56600;BME280;51832;48.152;11.530;2023-11-19T16:48:36;95237.03;;;14.08;100.00
56600;BME280;51832;48.152;11.530;2023-11-19T16:53:36;95230.13;;;13.80;100.00
56600;BME280;51832;48.152;11.530;2023-11-19T16:58:37;95253.16;;;13.80;100.00
56600;BME280;51832;48.152;11.530;2023-11-19T17:03:37;95228.75;;;14.00;98.90
56600;BME280;51832;48.152;11.530;2023-11-19T17:08:38;95240.34;;;13.94;97.76
56600;BME280;51832;48.152;11.530;2023-11-19T17:13:39;95226.25;;;13.88;96.67
56600;BME280;51832;48.152;11.530;2023-11-19T17:18:39;95248.69;;;13.85;95.98
56600;BME280;51832;48.152;11.530;2023-11-19T17:23:40;95247.41;;;13.88;95.17
56600;BME280;51832;48.152;11.530;2023-11-19T17:28:40;95263.03;;;13.90;94.50
56600;BME280;51832;48.152;11.530;2023-11-19T17:33:41;95253.28;;;13.95;93.66
56600;BME280;51832;48.152;11.530;2023-11-19T17:38:42;95268.94;;;13.75;94.08
56600;BME280;51832;48.152;11.530;2023-11-19T17:43:42;95294.25;;;13.71;94.11
56600;BME280;51832;48.152;11.530;2023-11-19T17:48:43;95250.72;;;13.57;94.60
56600;BME280;51832;48.152;11.530;2023-11-19T17:53:43;95248.75;;;13.69;93.95
56600;BME280;51832;48.152;11.530;2023-11-19T17:58:43;95265.53;;;13.58;94.25
56600;BME280;51832;48.152;11.530;2023-11-19T18:03:44;95276.66;;;13.81;93.21
56600;BME280;51832;48.152;11.530;2023-11-19T18:08:44;95264.31;;;13.65;94.65
56600;BME280;51832;48.152;11.530;2023-11-19T18:13:46;95280.44;;;13.64;94.78
56600;BME280;51832;48.152;11.530;2023-11-19T18:18:47;95297.38;;;13.46;95.08
56600;BME280;51832;48.152;11.530;2023-11-19T18:23:47;95286.69;;;13.58;94.25
56600;BME280;51832;48.152;11.530;2023-11-19T18:28:48;95299.28;;;13.50;94.43
56600;BME280;51832;48.152;11.530;2023-11-19T18:33:48;95285.03;;;13.51;93.52
56600;BME280;51832;48.152;11.530;2023-11-19T18:38:49;95287.09;;;13.49;93.80
56600;BME280;51832;48.152;11.530;2023-11-19T18:43:49;95289.84;;;13.38;93.92
56600;BME280;51832;48.152;11.530;2023-11-19T18:48:50;95280.97;;;13.27;93.71
56600;BME280;51832;48.152;11.530;2023-11-19T18:53:52;95300.25;;;13.28;94.16
56600;BME280;51832;48.152;11.530;2023-11-19T18:58:52;95306.53;;;13.22;94.34
56600;BME280;51832;48.152;11.530;2023-11-19T19:03:53;95291.13;;;13.35;94.15
56600;BME280;51832;48.152;11.530;2023-11-19T19:08:53;95283.78;;;13.21;95.20
56600;BME280;51832;48.152;11.530;2023-11-19T19:13:53;95295.53;;;13.30;94.66
56600;BME280;51832;48.152;11.530;2023-11-19T19:18:54;95298.13;;;13.25;95.18
56600;BME280;51832;48.152;11.530;2023-11-19T19:23:55;95328.22;;;13.24;95.42
56600;BME280;51832;48.152;11.530;2023-11-19T19:28:56;95313.31;;;13.34;95.11
56600;BME280;51832;48.152;11.530;2023-11-19T19:33:56;95312.31;;;12.90;97.39
56600;BME280;51832;48.152;11.530;2023-11-19T19:38:59;95343.53;;;12.93;97.26
56600;BME280;51832;48.152;11.530;2023-11-19T19:44:00;95327.09;;;12.74;98.97
56600;BME280;51832;48.152;11.530;2023-11-19T19:49:00;95332.97;;;12.93;98.23
56600;BME280;51832;48.152;11.530;2023-11-19T19:54:01;95325.44;;;13.02;98.40
56600;BME280;51832;48.152;11.530;2023-11-19T19:59:01;95333.44;;;12.90;99.45
56600;BME280;51832;48.152;11.530;2023-11-19T20:04:03;95330.25;;;12.88;99.57
56600;BME280;51832;48.152;11.530;2023-11-19T20:09:04;95325.25;;;12.75;100.00
56600;BME280;51832;48.152;11.530;2023-11-19T20:14:05;95326.34;;;12.91;100.00
56600;BME280;51832;48.152;11.530;2023-11-19T20:19:06;95335.22;;;13.01;99.52
56600;BME280;51832;48.152;11.530;2023-11-19T20:24:06;95346.28;;;12.98;99.63
56600;BME280;51832;48.152;11.530;2023-11-19T20:29:07;95340.31;;;13.20;98.17
56600;BME280;51832;48.152;11.530;2023-11-19T20:34:08;95352.41;;;12.87;98.55
56600;BME280;51832;48.152;11.530;2023-11-19T20:39:09;95350.31;;;12.72;99.34
56600;BME280;51832;48.152;11.530;2023-11-19T20:44:17;95385.47;;;12.90;97.88
56600;BME280;51832;48.152;11.530;2023-11-19T20:49:18;95367.16;;;12.83;98.39
56600;BME280;51832;48.152;11.530;2023-11-19T20:54:21;95393.03;;;12.69;99.24
56600;BME280;51832;48.152;11.530;2023-11-19T20:59:21;95368.97;;;12.82;98.38
56600;BME280;51832;48.152;11.530;2023-11-19T21:04:21;95356.59;;;12.83;97.85
56600;BME280;51832;48.152;11.530;2023-11-19T21:09:22;95352.19;;;12.60;97.39
56600;BME280;51832;48.152;11.530;2023-11-19T21:14:22;95350.97;;;12.79;94.42
56600;BME280;51832;48.152;11.530;2023-11-19T21:19:24;95348.03;;;12.93;91.76
56600;BME280;51832;48.152;11.530;2023-11-19T21:24:24;95368.16;;;13.10;89.48
56600;BME280;51832;48.152;11.530;2023-11-19T21:29:25;95349.13;;;12.80;88.63
56600;BME280;51832;48.152;11.530;2023-11-19T21:34:25;95354.13;;;13.10;86.90
56600;BME280;51832;48.152;11.530;2023-11-19T21:39:26;95338.09;;;12.83;88.00
56600;BME280;51832;48.152;11.530;2023-11-19T21:44:26;95362.16;;;12.87;87.32
56600;BME280;51832;48.152;11.530;2023-11-19T21:49:27;95350.25;;;12.84;87.22
56600;BME280;51832;48.152;11.530;2023-11-19T21:54:27;95351.31;;;12.83;87.17
56600;BME280;51832;48.152;11.530;2023-11-19T21:59:28;95355.84;;;12.88;86.78
56600;BME280;51832;48.152;11.530;2023-11-19T22:04:28;95338.75;;;13.07;86.36
56600;BME280;51832;48.152;11.530;2023-11-19T22:09:28;95380.25;;;12.78;86.11
56600;BME280;51832;48.152;11.530;2023-11-19T22:14:29;95386.00;;;12.75;85.70
56600;BME280;51832;48.152;11.530;2023-11-19T22:19:29;95349.41;;;12.95;85.38
56600;BME280;51832;48.152;11.530;2023-11-19T22:24:30;95355.94;;;12.93;84.54
56600;BME280;51832;48.152;11.530;2023-11-19T22:29:31;95363.47;;;12.84;84.97
56600;BME280;51832;48.152;11.530;2023-11-19T22:34:33;95342.66;;;13.04;84.62
56600;BME280;51832;48.152;11.530;2023-11-19T22:39:33;95352.56;;;12.80;85.92
56600;BME280;51832;48.152;11.530;2023-11-19T22:44:33;95357.28;;;12.78;86.01
56600;BME280;51832;48.152;11.530;2023-11-19T22:49:34;95370.66;;;12.60;86.34
56600;BME280;51832;48.152;11.530;2023-11-19T22:54:34;95362.16;;;12.87;85.31
56600;BME280;51832;48.152;11.530;2023-11-19T22:59:35;95366.75;;;12.63;86.07
56600;BME280;51832;48.152;11.530;2023-11-19T23:04:35;95359.13;;;12.78;85.61
56600;BME280;51832;48.152;11.530;2023-11-19T23:09:36;95355.03;;;12.70;84.96
56600;BME280;51832;48.152;11.530;2023-11-19T23:14:38;95357.06;;;12.80;84.61
56600;BME280;51832;48.152;11.530;2023-11-19T23:19:39;95351.78;;;12.80;84.56
56600;BME280;51832;48.152;11.530;2023-11-19T23:24:39;95352.16;;;13.17;82.85
56600;BME280;51832;48.152;11.530;2023-11-19T23:29:40;95370.25;;;12.80;84.67
56600;BME280;51832;48.152;11.530;2023-11-19T23:34:40;95367.00;;;13.06;83.65
56600;BME280;51832;48.152;11.530;2023-11-19T23:39:43;95363.84;;;12.76;85.31
56600;BME280;51832;48.152;11.530;2023-11-19T23:44:43;95375.13;;;12.88;84.85
56600;BME280;51832;48.152;11.530;2023-11-19T23:49:44;95367.47;;;13.03;84.58
56600;BME280;51832;48.152;11.530;2023-11-19T23:54:44;95357.56;;;12.94;85.04
56600;BME280;51832;48.152;11.530;2023-11-19T23:59:44;95353.94;;;12.83;85.63
